createdAt,value
2023-05-31T00:02:31.299Z,4.00
2023-05-31T00:06:07.083Z,7.10
2023-05-31T00:09:27.679Z,7.30
2023-05-31T00:12:29.857Z,9.40
2023-05-31T00:16:59.048Z,6.70
2023-05-31T00:20:18.888Z,9.70
2023-05-31T00:27:27.250Z,7.40
2023-05-31T00:31:23.260Z,9.30
2023-05-31T00:35:11.920Z,9.70
2023-05-31T00:38:39.599Z,7.20
2023-05-31T00:42:33.151Z,8.70
2023-05-31T00:46:00.793Z,7.90
2023-05-31T00:49:44.942Z,7.70
2023-05-31T00:53:25.491Z,14.10
2023-05-31T00:57:28.412Z,16.10
2023-05-31T01:03:47.918Z,9.60
2023-05-31T01:06:33.880Z,9.40
2023-05-31T01:09:18.190Z,14.30
2023-05-31T01:12:29.787Z,8.90
2023-05-31T01:15:30.350Z,9.60
2023-05-31T01:18:26.713Z,13.30
2023-05-31T01:21:10.467Z,15.40
2023-05-31T01:24:17.987Z,11.10
2023-05-31T01:27:03.147Z,8.70
2023-05-31T01:29:47.436Z,12.60
2023-05-31T01:32:30.729Z,12.50
2023-05-31T01:35:14.985Z,11.60
2023-05-31T01:37:57.894Z,11.70
2023-05-31T01:40:41.140Z,11.50
2023-05-31T01:43:27.585Z,10.10
2023-05-31T01:46:13.146Z,15.50
2023-05-31T01:48:58.188Z,17.10
2023-05-31T01:51:43.005Z,9.30
2023-05-31T01:54:26.283Z,8.30
2023-05-31T01:57:10.975Z,11.60
2023-05-31T01:59:58.643Z,11.40
2023-05-31T02:02:43.959Z,17.80
2023-05-31T02:05:27.006Z,23.80
2023-05-31T02:08:09.900Z,51.10
2023-05-31T02:10:54.196Z,55.40
2023-05-31T02:13:37.053Z,70.70
2023-05-31T02:16:20.586Z,69.40
2023-05-31T02:19:04.260Z,56.70
2023-05-31T02:21:47.467Z,58.90
2023-05-31T02:24:30.308Z,52.70
2023-05-31T02:27:14.636Z,32.70
2023-05-31T02:29:57.473Z,35.20
2023-05-31T02:32:41.114Z,28.20
2023-05-31T02:35:24.038Z,30.50
2023-05-31T02:40:49.564Z,25.90
2023-05-31T02:43:32.442Z,19.80
2023-05-31T02:46:15.341Z,16.90
2023-05-31T02:48:59.780Z,17.80
2023-05-31T02:51:42.582Z,17.00
2023-05-31T02:54:44.419Z,17.80
2023-05-31T02:57:29.773Z,16.40
2023-05-31T03:00:14.544Z,11.20
2023-05-31T03:02:57.581Z,7.70
2023-05-31T03:05:51.108Z,10.20
2023-05-31T03:08:34.019Z,18.60
2023-05-31T03:11:17.970Z,12.30
2023-05-31T03:14:01.986Z,14.40
2023-05-31T03:16:58.208Z,13.50
2023-05-31T03:19:41.629Z,9.80
2023-05-31T03:22:24.867Z,13.10
2023-05-31T03:25:09.365Z,10.70
2023-05-31T03:27:52.481Z,12.50
2023-05-31T03:30:35.559Z,13.80
2023-05-31T03:33:19.120Z,10.50
2023-05-31T03:36:03.319Z,10.20
2023-05-31T03:38:46.234Z,11.10
2023-05-31T03:41:31.445Z,14.20
2023-05-31T03:44:14.523Z,14.40
2023-05-31T03:46:58.127Z,16.70
2023-05-31T03:49:41.751Z,13.30
2023-05-31T03:52:25.323Z,15.00
2023-05-31T03:55:09.074Z,17.10
2023-05-31T03:57:53.870Z,16.90
2023-05-31T04:00:37.331Z,24.00
2023-05-31T04:03:20.505Z,18.80
2023-05-31T04:06:06.471Z,26.60
2023-05-31T04:08:49.952Z,19.10
2023-05-31T04:11:33.145Z,17.30
2023-05-31T04:14:16.364Z,14.60
2023-05-31T04:16:59.686Z,19.30
2023-05-31T04:19:43.095Z,24.50
2023-05-31T04:22:26.209Z,20.60
2023-05-31T04:25:14.468Z,10.00
2023-05-31T04:27:58.420Z,12.50
2023-05-31T04:30:41.841Z,13.50
2023-05-31T04:33:25.033Z,14.00
2023-05-31T04:36:09.592Z,12.20
2023-05-31T04:38:56.694Z,15.50
2023-05-31T04:41:42.867Z,12.00
2023-05-31T04:44:26.129Z,23.60
2023-05-31T04:47:10.336Z,15.20
2023-05-31T04:49:55.556Z,14.40
2023-05-31T04:52:41.409Z,19.50
2023-05-31T04:55:24.432Z,20.80
2023-05-31T04:58:09.278Z,10.20
2023-05-31T05:00:52.543Z,12.90
2023-05-31T05:03:40.026Z,16.20
2023-05-31T05:06:23.969Z,9.00
2023-05-31T05:09:07.150Z,11.30
2023-05-31T05:11:50.460Z,12.00
2023-05-31T05:14:33.959Z,11.50
2023-05-31T05:17:16.905Z,18.50
2023-05-31T05:20:00.495Z,9.30
2023-05-31T05:22:52.662Z,14.60
2023-05-31T05:25:37.338Z,9.90
2023-05-31T05:28:20.230Z,14.60
2023-05-31T05:31:05.031Z,13.00
2023-05-31T05:33:52.049Z,13.60
2023-05-31T05:36:34.959Z,17.00
2023-05-31T05:39:18.039Z,12.50
2023-05-31T05:42:04.023Z,13.70
2023-05-31T05:44:47.260Z,14.30
2023-05-31T05:47:30.100Z,15.90
2023-05-31T05:50:13.346Z,11.20
2023-05-31T05:52:56.325Z,9.30
2023-05-31T05:55:39.580Z,19.40
2023-05-31T05:58:22.864Z,15.30
2023-05-31T06:01:28.304Z,10.70
2023-05-31T06:04:12.251Z,12.60
2023-05-31T06:06:55.836Z,13.10
2023-05-31T06:09:38.657Z,17.30
2023-05-31T06:12:22.033Z,15.40
2023-05-31T06:15:07.262Z,15.00
2023-05-31T06:17:50.670Z,13.20
2023-05-31T06:20:33.500Z,8.90
2023-05-31T06:23:16.623Z,18.50
2023-05-31T06:25:59.945Z,11.30
2023-05-31T06:28:42.929Z,13.80
2023-05-31T06:31:37.372Z,9.00
2023-05-31T06:34:20.769Z,7.90
2023-05-31T06:37:04.253Z,13.10
2023-05-31T06:39:47.805Z,13.70
2023-05-31T06:42:31.044Z,16.90
2023-05-31T06:45:13.926Z,10.80
2023-05-31T06:48:15.576Z,13.80
2023-05-31T06:51:20.692Z,11.30
2023-05-31T06:54:24.976Z,12.40
2023-05-31T06:57:08.411Z,6.00
2023-05-31T06:59:51.607Z,13.80
2023-05-31T07:02:34.447Z,14.00
2023-05-31T07:05:17.720Z,12.90
2023-05-31T07:08:03.195Z,11.60
2023-05-31T07:10:47.278Z,14.90
2023-05-31T07:13:30.121Z,14.40
2023-05-31T07:16:13.087Z,17.90
2023-05-31T07:18:57.182Z,7.20
2023-05-31T07:21:40.279Z,4.60
2023-05-31T07:24:23.304Z,6.00
2023-05-31T07:27:06.802Z,10.80
2023-05-31T07:29:49.784Z,11.80
2023-05-31T07:32:32.689Z,9.40
2023-05-31T07:35:15.833Z,6.50
2023-05-31T07:37:58.959Z,13.70
2023-05-31T07:40:41.768Z,10.10
2023-05-31T07:43:25.265Z,7.40
2023-05-31T07:46:08.076Z,6.50
2023-05-31T07:48:51.755Z,8.10
2023-05-31T07:51:34.895Z,8.60
2023-05-31T07:54:17.867Z,19.80
2023-05-31T07:57:01.127Z,4.70
2023-05-31T07:59:43.996Z,12.70
2023-05-31T08:02:27.080Z,8.20
2023-05-31T08:05:10.746Z,12.50
2023-05-31T08:07:53.545Z,7.30
2023-05-31T08:10:36.598Z,7.00
2023-05-31T08:13:19.850Z,10.60
2023-05-31T08:16:02.700Z,5.30
2023-05-31T08:18:46.248Z,7.10
2023-05-31T08:21:29.471Z,7.90
2023-05-31T08:24:12.296Z,13.20
2023-05-31T08:26:57.271Z,8.20
2023-05-31T08:29:40.040Z,7.00
2023-05-31T08:32:22.845Z,10.50
2023-05-31T08:35:07.611Z,8.80
2023-05-31T08:37:50.461Z,7.30
2023-05-31T08:40:34.437Z,8.70
2023-05-31T08:43:22.434Z,6.90
2023-05-31T08:46:07.712Z,12.40
2023-05-31T08:48:55.466Z,11.20
2023-05-31T08:51:39.808Z,10.80
2023-05-31T08:54:22.596Z,10.60
2023-05-31T08:57:06.819Z,8.90
2023-05-31T08:59:51.770Z,6.10
2023-05-31T09:02:34.953Z,7.40
2023-05-31T09:05:17.977Z,6.80
2023-05-31T09:08:01.621Z,8.00
2023-05-31T09:10:44.608Z,5.50
2023-05-31T09:13:27.978Z,7.60
2023-05-31T09:16:12.348Z,8.60
2023-05-31T09:19:03.859Z,10.50
2023-05-31T09:21:46.924Z,12.60
2023-05-31T09:24:29.812Z,7.50
2023-05-31T09:27:12.928Z,5.30
2023-05-31T09:29:57.361Z,7.20
2023-05-31T09:32:40.652Z,5.80
2023-05-31T09:35:28.566Z,7.20
2023-05-31T09:38:11.805Z,5.90
2023-05-31T09:40:54.634Z,6.00
2023-05-31T09:43:42.365Z,8.60
2023-05-31T09:46:26.996Z,6.70
2023-05-31T09:49:12.018Z,8.70
2023-05-31T09:51:54.814Z,3.60
2023-05-31T09:54:38.958Z,7.00
2023-05-31T09:57:32.979Z,10.20
2023-05-31T10:00:18.122Z,5.40
2023-05-31T10:03:01.158Z,16.70
2023-05-31T10:05:44.393Z,5.00
2023-05-31T10:08:28.057Z,7.30
2023-05-31T10:11:14.376Z,6.90
2023-05-31T10:14:00.900Z,5.30
2023-05-31T10:16:51.348Z,7.50
2023-05-31T10:19:46.557Z,4.50
2023-05-31T10:22:32.195Z,4.30
2023-05-31T10:25:26.346Z,5.40
2023-05-31T10:28:16.758Z,6.20
2023-05-31T10:31:01.834Z,5.20
2023-05-31T10:33:54.582Z,6.60
2023-05-31T10:36:37.660Z,5.50
2023-05-31T10:39:32.686Z,5.70
2023-05-31T10:42:34.544Z,8.40
2023-05-31T10:45:26.663Z,6.60
2023-05-31T10:48:23.475Z,6.80
2023-05-31T10:51:08.338Z,8.70
2023-05-31T10:53:51.563Z,9.50
2023-05-31T10:56:38.796Z,7.40
2023-05-31T10:59:23.763Z,6.20
2023-05-31T11:02:07.812Z,4.20
2023-05-31T11:04:51.057Z,4.50
2023-05-31T11:07:34.546Z,5.90
2023-05-31T11:10:33.173Z,10.70
2023-05-31T11:13:16.318Z,8.50
2023-05-31T11:15:59.339Z,7.20
2023-05-31T11:18:43.487Z,6.10
2023-05-31T11:22:08.924Z,4.90
2023-05-31T11:24:53.611Z,9.00
2023-05-31T11:27:41.038Z,8.50
2023-05-31T11:30:24.374Z,7.00
2023-05-31T11:33:16.611Z,6.90
2023-05-31T11:36:03.619Z,4.80
2023-05-31T11:38:46.441Z,2.90
2023-05-31T11:41:30.340Z,11.50
2023-05-31T11:44:15.804Z,4.60
2023-05-31T11:47:06.459Z,10.00
2023-05-31T11:49:50.271Z,8.50
2023-05-31T11:52:33.313Z,6.80
2023-05-31T11:55:19.260Z,7.60
2023-05-31T11:58:03.228Z,3.60
2023-05-31T12:00:47.761Z,5.30
2023-05-31T12:03:32.163Z,3.70
2023-05-31T12:06:15.319Z,4.20
2023-05-31T12:08:58.442Z,7.60
2023-05-31T12:11:41.472Z,10.30
2023-05-31T12:14:28.403Z,8.60
2023-05-31T12:17:11.523Z,6.60
2023-05-31T12:19:54.593Z,4.90
2023-05-31T12:22:37.513Z,3.40
2023-05-31T12:25:20.855Z,11.20
2023-05-31T12:28:04.460Z,14.00
2023-05-31T12:30:49.868Z,8.60
2023-05-31T12:33:36.441Z,9.60
2023-05-31T12:36:19.766Z,3.10
2023-05-31T12:39:02.641Z,10.80
2023-05-31T12:41:47.148Z,4.80
2023-05-31T12:44:31.392Z,3.70
2023-05-31T12:47:14.184Z,3.80
2023-05-31T12:50:03.465Z,5.70
2023-05-31T12:52:56.661Z,2.70
2023-05-31T12:55:40.005Z,3.70
2023-05-31T12:58:22.868Z,12.00
2023-05-31T13:01:06.648Z,7.00
2023-05-31T13:03:50.037Z,7.10
2023-05-31T13:06:33.517Z,4.90
2023-05-31T13:09:17.720Z,3.40
2023-05-31T13:12:00.652Z,3.60
2023-05-31T13:14:45.106Z,5.80
2023-05-31T13:17:28.096Z,4.10
2023-05-31T13:20:13.287Z,19.60
2023-05-31T13:22:59.028Z,4.30
2023-05-31T13:25:42.560Z,7.20
2023-05-31T13:28:26.267Z,3.40
2023-05-31T13:31:09.674Z,25.50
2023-05-31T13:33:52.740Z,4.20
2023-05-31T13:36:35.642Z,4.60
2023-05-31T13:39:18.651Z,10.20
2023-05-31T13:42:02.843Z,7.20
2023-05-31T13:44:45.728Z,8.20
2023-05-31T13:47:28.642Z,8.70
2023-05-31T13:50:11.923Z,6.30
2023-05-31T13:52:54.841Z,8.70
2023-05-31T13:55:40.700Z,5.20
2023-05-31T13:58:25.935Z,5.70
2023-05-31T14:01:09.084Z,3.90
2023-05-31T14:03:52.835Z,2.80
2023-05-31T14:06:36.951Z,20.40
2023-05-31T14:09:20.027Z,3.10
2023-05-31T14:12:02.918Z,3.30
2023-05-31T14:14:45.729Z,12.20
2023-05-31T14:17:28.647Z,3.70
2023-05-31T14:20:12.616Z,5.00
2023-05-31T14:22:56.153Z,4.00
2023-05-31T14:25:38.961Z,4.80
2023-05-31T14:28:22.301Z,5.50
2023-05-31T14:31:05.622Z,4.40
2023-05-31T14:33:48.526Z,7.50
2023-05-31T14:36:32.353Z,6.80
2023-05-31T14:39:15.995Z,3.00
2023-05-31T14:41:59.738Z,4.50
2023-05-31T14:44:42.733Z,9.30
2023-05-31T14:47:25.608Z,7.20
2023-05-31T14:50:09.159Z,2.30
2023-05-31T14:52:52.086Z,9.50
2023-05-31T14:55:35.749Z,9.30
2023-05-31T14:58:18.512Z,5.30
2023-05-31T15:01:01.789Z,27.80
2023-05-31T15:03:45.627Z,11.10
2023-05-31T15:06:28.608Z,4.00
2023-05-31T15:09:11.846Z,10.10
2023-05-31T15:11:54.723Z,10.40
2023-05-31T15:14:37.749Z,12.50
2023-05-31T15:17:20.614Z,12.30
2023-05-31T15:20:03.725Z,6.90
2023-05-31T15:22:48.033Z,14.50
2023-05-31T15:25:31.144Z,3.90
2023-05-31T15:28:14.579Z,4.20
2023-05-31T15:30:58.293Z,7.20
2023-05-31T15:33:41.848Z,2.70
2023-05-31T15:36:24.758Z,7.10
2023-05-31T15:39:07.586Z,2.10
2023-05-31T15:41:52.242Z,6.90
2023-05-31T15:44:35.071Z,2.50
2023-05-31T15:47:18.483Z,6.10
2023-05-31T15:50:02.602Z,19.70
2023-05-31T15:52:45.647Z,10.30
2023-05-31T15:55:30.167Z,25.20
2023-05-31T15:58:13.249Z,24.30
2023-05-31T16:00:56.607Z,3.80
2023-05-31T16:03:39.712Z,5.00
2023-05-31T16:06:22.972Z,4.40
2023-05-31T16:09:05.866Z,8.30
2023-05-31T16:11:50.856Z,57.40
2023-05-31T16:14:35.266Z,4.00
2023-05-31T16:17:18.285Z,6.20
2023-05-31T16:20:01.532Z,4.70
2023-05-31T16:22:44.624Z,3.20
2023-05-31T16:25:27.656Z,4.80
2023-05-31T16:28:10.533Z,11.00
2023-05-31T16:30:53.701Z,5.40
2023-05-31T16:33:37.115Z,4.60
2023-05-31T16:36:20.054Z,2.20
2023-05-31T16:39:05.286Z,6.70
2023-05-31T16:41:48.371Z,6.10
2023-05-31T16:44:31.205Z,7.50
2023-05-31T16:47:14.100Z,2.70
2023-05-31T16:49:57.087Z,3.90
2023-05-31T16:52:39.918Z,4.20
2023-05-31T16:55:23.025Z,4.00
2023-05-31T16:58:06.035Z,24.40
2023-05-31T17:00:49.065Z,5.60
2023-05-31T17:03:32.026Z,7.90
2023-05-31T17:06:16.317Z,21.90
2023-05-31T17:08:59.364Z,4.50
2023-05-31T17:11:42.136Z,7.70
2023-05-31T17:14:25.184Z,3.90
2023-05-31T17:17:08.068Z,6.00
2023-05-31T17:19:51.120Z,5.10
2023-05-31T17:22:34.175Z,7.20
2023-05-31T17:25:19.103Z,5.00
2023-05-31T17:28:02.309Z,6.30
2023-05-31T17:30:45.351Z,5.90
2023-05-31T17:33:28.206Z,3.10
2023-05-31T17:36:11.116Z,5.70
2023-05-31T17:38:54.042Z,5.20
2023-05-31T17:41:36.815Z,8.40
2023-05-31T17:44:20.548Z,8.10
2023-05-31T17:47:03.418Z,55.10
2023-05-31T17:49:46.392Z,42.40
2023-05-31T17:52:35.868Z,9.60
2023-05-31T17:55:21.411Z,11.90
2023-05-31T17:58:04.301Z,8.10
2023-05-31T18:00:47.163Z,9.10
2023-05-31T18:03:30.008Z,9.50
2023-05-31T18:06:14.448Z,8.90
2023-05-31T18:08:57.472Z,10.40
2023-05-31T18:11:40.780Z,44.00
2023-05-31T18:14:23.579Z,24.10
2023-05-31T18:17:06.649Z,21.90
2023-05-31T18:19:49.562Z,11.00
2023-05-31T18:22:32.608Z,30.20
2023-05-31T18:25:15.870Z,47.60
2023-05-31T18:27:59.086Z,44.50
2023-05-31T18:30:42.139Z,36.30
2023-05-31T18:33:25.015Z,52.50
2023-05-31T18:36:07.979Z,38.90
2023-05-31T18:38:53.050Z,88.90
2023-05-31T18:41:36.172Z,109.10
2023-05-31T18:44:18.935Z,102.50
2023-05-31T18:47:02.023Z,52.70
2023-05-31T18:49:45.157Z,40.50
2023-05-31T18:52:28.056Z,33.90
2023-05-31T18:55:11.886Z,29.40
2023-05-31T18:57:54.840Z,21.00
2023-05-31T19:00:37.887Z,21.80
2023-05-31T19:03:21.328Z,34.10
2023-05-31T19:06:04.989Z,35.30
2023-05-31T19:08:47.891Z,25.90
2023-05-31T19:11:31.436Z,26.30
2023-05-31T19:14:19.994Z,97.60
2023-05-31T19:17:04.267Z,90.30
2023-05-31T19:19:48.746Z,87.10
2023-05-31T19:22:55.796Z,73.40
2023-05-31T19:25:38.864Z,77.00
2023-05-31T19:28:21.811Z,53.70
2023-05-31T19:31:04.867Z,43.80
2023-05-31T19:33:48.112Z,43.80
2023-05-31T19:36:32.130Z,32.40
2023-05-31T19:39:17.641Z,22.60
2023-05-31T19:42:00.488Z,32.00
2023-05-31T19:44:43.390Z,54.70
2023-05-31T19:47:26.324Z,43.00
2023-05-31T19:50:09.812Z,44.20
2023-05-31T19:52:52.655Z,52.50
2023-05-31T19:55:37.542Z,73.20
2023-05-31T19:58:20.673Z,71.20
2023-05-31T20:01:05.012Z,64.00
2023-05-31T20:03:48.030Z,55.50
2023-05-31T20:06:31.397Z,35.10
2023-05-31T20:09:14.404Z,41.30
2023-05-31T20:11:57.786Z,21.90
2023-05-31T20:14:40.674Z,22.80
2023-05-31T20:17:24.115Z,12.40
2023-05-31T20:20:07.450Z,12.30
2023-05-31T20:22:50.695Z,9.00
2023-05-31T20:25:33.516Z,11.20
2023-05-31T20:28:17.452Z,15.20
2023-05-31T20:31:00.397Z,12.00
2023-05-31T20:33:44.236Z,7.70
2023-05-31T20:36:27.079Z,8.70
2023-05-31T20:39:10.247Z,12.70
2023-05-31T20:41:53.099Z,8.80
2023-05-31T20:44:35.944Z,10.50
2023-05-31T20:47:19.006Z,14.80
2023-05-31T20:50:01.831Z,18.60
2023-05-31T20:52:44.783Z,22.20
2023-05-31T20:55:28.006Z,21.50
2023-05-31T20:58:11.239Z,17.20
2023-05-31T21:00:54.535Z,14.80
2023-05-31T21:03:37.516Z,22.50
2023-05-31T21:06:20.493Z,17.30
2023-05-31T21:09:03.491Z,32.90
2023-05-31T21:11:50.980Z,28.30
2023-05-31T21:14:34.460Z,28.00
2023-05-31T21:17:17.498Z,30.50
2023-05-31T21:20:00.708Z,33.70
2023-05-31T21:22:43.566Z,39.80
2023-05-31T21:25:26.366Z,28.60
2023-05-31T21:28:09.268Z,47.90
2023-05-31T21:30:52.236Z,34.40
2023-05-31T21:33:35.122Z,35.40
2023-05-31T21:36:17.954Z,35.10
2023-05-31T21:39:01.491Z,45.80
2023-05-31T21:41:44.975Z,46.30
2023-05-31T21:44:27.810Z,43.10
2023-05-31T21:47:10.874Z,43.40
2023-05-31T21:49:55.132Z,56.00
2023-05-31T21:52:38.039Z,32.70
2023-05-31T21:55:22.531Z,39.30
2023-05-31T21:58:05.356Z,29.80
2023-05-31T22:00:48.220Z,30.00
2023-05-31T22:03:31.226Z,26.00
2023-05-31T22:06:14.186Z,30.30
2023-05-31T22:08:58.416Z,37.10
2023-05-31T22:11:41.538Z,48.10
2023-05-31T22:14:28.960Z,47.20
2023-05-31T22:17:12.430Z,46.10
2023-05-31T22:20:00.694Z,43.50
2023-05-31T22:22:43.978Z,48.00
2023-05-31T22:25:27.286Z,46.90
2023-05-31T22:28:11.430Z,41.90
2023-05-31T22:30:56.331Z,41.60
2023-05-31T22:33:39.314Z,35.80
2023-05-31T22:36:22.409Z,43.80
2023-05-31T22:39:06.124Z,35.90
2023-05-31T22:41:48.938Z,33.80
2023-05-31T22:44:31.863Z,27.30
2023-05-31T22:47:14.735Z,38.40
2023-05-31T22:49:57.615Z,27.00
2023-05-31T22:52:41.427Z,20.40
2023-05-31T22:55:24.436Z,25.10
2023-05-31T22:58:07.440Z,24.90
2023-05-31T23:00:50.554Z,15.30
2023-05-31T23:03:33.550Z,30.10
2023-05-31T23:06:17.268Z,23.80
2023-05-31T23:09:00.358Z,22.40
2023-05-31T23:11:46.379Z,20.10
2023-05-31T23:14:30.386Z,20.90
2023-05-31T23:17:14.341Z,19.60
2023-05-31T23:19:58.187Z,14.60
2023-05-31T23:22:42.491Z,16.30
2023-05-31T23:25:25.306Z,18.00
2023-05-31T23:28:08.152Z,16.60
2023-05-31T23:30:51.027Z,14.10
2023-05-31T23:33:34.074Z,13.30
2023-05-31T23:36:16.937Z,15.10
2023-05-31T23:38:59.774Z,13.30
2023-05-31T23:41:42.583Z,19.60
2023-05-31T23:44:25.635Z,12.30
2023-05-31T23:47:08.534Z,11.70
2023-05-31T23:49:51.474Z,15.70
2023-05-31T23:52:34.279Z,15.20
2023-05-31T23:55:17.482Z,14.50
2023-05-31T23:58:00.371Z,16.80
